Time;durP1;ratioP1;P1;durP2;ratioP2;P2;SDS_P1;SDS_P2;PMS_P1;PMS_P2;Temp;Humidity;BMP_temperature;BMP_pressure;BME280_temperature;BME280_humidity;BME280_pressure;Samples;Min_cycle;Max_cycle;Signal;HPM_P1;HPM_P2
2021/06/30 16:53:29;;;;;;;17.40;10.15;;;;;;;;;;5103605;27;20450;-59
2021/06/30 16:55:56;;;;;;;15.90;9.82;;;;;;;;;;5104607;28;20027;-54
2021/06/30 16:58:22;;;;;;;16.52;9.18;;;;;;;;;;5105110;28;20034;-55
2021/06/30 17:00:48;;;;;;;17.55;10.07;;;;;;;;;;5106702;28;20502;-56
2021/06/30 17:03:14;;;;;;;16.02;9.10;;;;;;;;;;5105471;28;20045;-56
2021/06/30 17:05:40;;;;;;;15.15;9.77;;;;;;;;;;5106830;28;20103;-56
2021/06/30 17:08:09;;;;;;;14.32;9.18;;;;;;;;;;5106868;28;20020;-55
2021/06/30 17:10:36;;;;;;;15.80;10.05;;;;;;;;;;5106439;28;20388;-56
2021/06/30 17:13:02;;;;;;;13.55;9.63;;;;;;;;;;5107056;28;20051;-56
2021/06/30 17:15:30;;;;;;;15.47;10.23;;;;;;;;;;5106439;28;20028;-55
2021/06/30 17:17:56;;;;;;;14.00;8.63;;;;;;;;;;5105997;28;20264;-56
2021/06/30 17:20:22;;;;;;;14.35;10.00;;;;;;;;;;5106208;28;20097;-56
2021/06/30 17:22:49;;;;;;;12.82;9.38;;;;;;;;;;5106249;28;20348;-56
2021/06/30 17:25:15;;;;;;;13.10;8.60;;;;;;;;;;5106473;28;20028;-58
2021/06/30 17:27:42;;;;;;;13.47;9.13;;;;;;;;;;5110706;28;20102;-57
2021/06/30 17:30:09;;;;;;;11.30;8.73;;;;;;;;;;5104717;28;20136;-56
2021/06/30 17:32:44;;;;;;;11.55;9.05;;;;;;;;;;5106075;28;20097;-56
2021/06/30 17:35:10;;;;;;;14.07;9.27;;;;;;;;;;5115622;28;20048;-56
2021/06/30 17:37:39;;;;;;;12.63;8.50;;;;;;;;;;5109348;27;20058;-56
2021/06/30 17:40:06;;;;;;;14.27;9.63;;;;;;;;;;5115551;28;20028;-55
2021/06/30 17:42:33;;;;;;;13.05;9.20;;;;;;;;;;5108138;28;20020;-56
2021/06/30 17:44:59;;;;;;;12.47;8.63;;;;;;;;;;5108620;28;20422;-58
2021/06/30 17:47:29;;;;;;;13.43;8.70;;;;;;;;;;5106715;28;20027;-59
2021/06/30 17:49:55;;;;;;;12.27;8.82;;;;;;;;;;5093197;28;20031;-58
2021/06/30 17:52:22;;;;;;;11.88;8.13;;;;;;;;;;5107137;28;20056;-58
2021/06/30 17:54:54;;;;;;;11.45;8.18;;;;;;;;;;5110164;27;20046;-59
2021/06/30 17:57:20;;;;;;;10.20;7.22;;;;;;;;;;5111520;28;20040;-59
2021/06/30 17:59:49;;;;;;;10.85;8.07;;;;;;;;;;5113047;28;20024;-61
2021/06/30 18:02:16;;;;;;;12.40;8.57;;;;;;;;;;5103902;28;20024;-59
2021/06/30 18:04:42;;;;;;;12.97;8.87;;;;;;;;;;5092730;28;20032;-59
2021/06/30 18:07:10;;;;;;;12.50;8.90;;;;;;;;;;5095496;28;20016;-60
2021/06/30 18:09:38;;;;;;;11.07;8.07;;;;;;;;;;5094045;28;20015;-59
2021/06/30 18:12:06;;;;;;;12.40;8.70;;;;;;;;;;5091145;28;20044;-59
2021/06/30 18:14:32;;;;;;;11.40;8.95;;;;;;;;;;5090992;28;20098;-60
2021/06/30 18:16:58;;;;;;;13.15;8.35;;;;;;;;;;5089758;28;20025;-60
2021/06/30 18:19:27;;;;;;;11.77;9.07;;;;;;;;;;5093740;28;20031;-60
2021/06/30 18:21:56;;;;;;;12.43;8.95;;;;;;;;;;5091490;28;20221;-59
2021/06/30 18:24:24;;;;;;;12.50;9.52;;;;;;;;;;5091511;28;20032;-59
2021/06/30 18:26:51;;;;;;;11.25;8.40;;;;;;;;;;5088641;28;20437;-59
2021/06/30 18:29:19;;;;;;;11.30;8.35;;;;;;;;;;5090481;28;20028;-59
2021/06/30 18:31:48;;;;;;;12.02;8.30;;;;;;;;;;5088849;28;20043;-60
2021/06/30 18:34:14;;;;;;;10.85;8.75;;;;;;;;;;5088760;28;20028;-59
2021/06/30 18:36:40;;;;;;;11.73;8.57;;;;;;;;;;5085488;28;20448;-60
2021/06/30 18:39:09;;;;;;;11.43;8.70;;;;;;;;;;5092501;28;20020;-60
2021/06/30 18:41:36;;;;;;;11.48;9.13;;;;;;;;;;5095974;28;20031;-60
2021/06/30 18:44:02;;;;;;;11.00;8.27;;;;;;;;;;5092007;28;20031;-59
2021/06/30 18:46:29;;;;;;;12.73;9.15;;;;;;;;;;5091668;28;20544;-59
2021/06/30 18:48:55;;;;;;;12.00;8.95;;;;;;;;;;5090421;28;20111;-60
2021/06/30 18:51:21;;;;;;;11.57;8.88;;;;;;;;;;5082353;28;20025;-61
2021/06/30 18:53:51;;;;;;;11.17;8.10;;;;;;;;;;5089721;28;20016;-59
2021/06/30 18:56:17;;;;;;;11.70;9.13;;;;;;;;;;5092057;28;20099;-59
2021/06/30 18:58:43;;;;;;;10.98;8.57;;;;;;;;;;5092007;28;20023;-60
2021/06/30 19:01:09;;;;;;;13.15;9.32;;;;;;;;;;5091196;28;20028;-60
2021/06/30 19:03:41;;;;;;;10.50;8.80;;;;;;;;;;5089880;28;21065;-60
2021/06/30 19:06:07;;;;;;;12.70;9.18;;;;;;;;;;5092019;28;20341;-60
2021/06/30 19:08:34;;;;;;;13.73;9.03;;;;;;;;;;5092128;28;20027;-61
2021/06/30 19:11:03;;;;;;;12.48;8.95;;;;;;;;;;5087620;28;20019;-59
2021/06/30 19:13:29;;;;;;;11.88;9.20;;;;;;;;;;5091657;28;20044;-60
2021/06/30 19:15:57;;;;;;;13.82;9.02;;;;;;;;;;5093510;28;20016;-60
2021/06/30 19:18:23;;;;;;;12.77;8.60;;;;;;;;;;5091043;28;20050;-59
2021/06/30 19:20:50;;;;;;;14.15;9.65;;;;;;;;;;5091547;28;20069;-59
2021/06/30 19:23:16;;;;;;;12.68;9.52;;;;;;;;;;5089468;28;20056;-59
2021/06/30 19:25:43;;;;;;;14.02;10.48;;;;;;;;;;5086928;28;20038;-60
2021/06/30 19:28:09;;;;;;;12.73;9.38;;;;;;;;;;5100062;28;20050;-60
2021/06/30 19:30:40;;;;;;;13.50;9.13;;;;;;;;;;5082183;28;20020;-60
2021/06/30 19:33:11;;;;;;;12.88;9.13;;;;;;;;;;5090404;28;20495;-60
2021/06/30 19:35:37;;;;;;;15.80;9.80;;;;;;;;;;5090252;28;20076;-60
2021/06/30 19:38:03;;;;;;;12.68;9.27;;;;;;;;;;5088996;28;20038;-60
2021/06/30 19:40:29;;;;;;;12.23;8.73;;;;;;;;;;5079689;28;20020;-61
2021/06/30 19:42:56;;;;;;;12.13;9.13;;;;;;;;;;5088414;28;20058;-59
2021/06/30 19:45:22;;;;;;;14.48;8.90;;;;;;;;;;5086600;28;20028;-61
2021/06/30 19:47:53;;;;;;;11.98;8.73;;;;;;;;;;5089411;28;20500;-60
2021/06/30 19:50:19;;;;;;;15.80;9.05;;;;;;;;;;5088912;28;20108;-64
2021/06/30 19:52:46;;;;;;;14.55;9.80;;;;;;;;;;5089989;28;20548;-58
2021/06/30 19:55:18;;;;;;;13.70;9.27;;;;;;;;;;5090645;28;20049;-61
2021/06/30 19:57:46;;;;;;;13.88;9.45;;;;;;;;;;5090010;28;20016;-60
2021/06/30 20:00:14;;;;;;;14.52;9.82;;;;;;;;;;5089464;28;20024;-60
2021/06/30 20:02:44;;;;;;;14.32;9.80;;;;;;;;;;5090263;28;20020;-60
2021/06/30 20:05:13;;;;;;;13.13;9.93;;;;;;;;;;5089699;28;20034;-60
2021/06/30 20:07:42;;;;;;;12.95;9.38;;;;;;;;;;5089321;28;20035;-60
2021/06/30 20:11:05;;;;;;;14.48;10.02;;;;;;;;;;5067018;28;20421;-57
2021/06/30 20:13:31;;;;;;;14.10;9.35;;;;;;;;;;5078424;28;20030;-54
2021/06/30 20:15:57;;;;;;;12.70;9.48;;;;;;;;;;5073376;28;20048;-57
2021/06/30 20:18:23;;;;;;;16.80;9.82;;;;;;;;;;5071979;28;20095;-53
2021/06/30 20:20:49;;;;;;;;;;;;;;;;;;5069802;28;20029;-55
2021/06/30 20:23:15;;;;;;;;;;;;;;;;;;5067628;28;19908;-53
2021/06/30 20:25:41;;;;;;;;;;;;;;;;;;5065352;28;19955;-54
2021/06/30 20:28:07;;;;;;;;;;;;;;;;;;5060962;28;19908;-56
2021/06/30 20:30:33;;;;;;;;;;;;;;;;;;5063326;28;20005;-53
2021/06/30 20:32:59;;;;;;;;;;;;;;;;;;5060483;28;19904;-55
2021/06/30 20:35:25;;;;;;;;;;;;;;;;;;5066832;28;19978;-56
2021/06/30 20:37:51;;;;;;;;;;;;;;;;;;5066214;28;19916;-55
2021/06/30 20:40:17;;;;;;;;;;;;;;;;;;5067235;28;19950;-55
2021/06/30 20:42:43;;;;;;;;;;;;;;;;;;5077265;28;19919;-55
2021/06/30 20:45:09;;;;;;;;;;;;;;;;;;5070735;28;19905;-53
2021/06/30 20:47:35;;;;;;;;;;;;;;;;;;5055944;28;20257;-54
2021/06/30 20:50:01;;;;;;;;;;;;;;;;;;5062755;28;20236;-57
2021/06/30 20:52:27;;;;;;;;;;;;;;;;;;5066828;28;20407;-54
2021/06/30 20:54:55;;;;;;;;;;;;;;;;;;5067331;28;20335;-54
2021/06/30 20:57:21;;;;;;;;;;;;;;;;;;5065627;28;19905;-55
2021/06/30 20:59:47;;;;;;;;;;;;;;;;;;5066665;28;20220;-55
2021/06/30 21:02:13;;;;;;;;;;;;;;;;;;5066849;28;19911;-56
2021/06/30 21:04:42;;;;;;;;;;;;;;;;;;5063302;28;19943;-52
2021/06/30 21:07:08;;;;;;;;;;;;;;;;;;5049822;28;19916;-53
2021/06/30 21:09:34;;;;;;;;;;;;;;;;;;5064962;28;20369;-55
2021/06/30 21:12:02;;;;;;;;;;;;;;;;;;5066889;28;20289;-55
2021/06/30 21:14:28;;;;;;;;;;;;;;;;;;5066727;28;19904;-55
2021/06/30 21:16:54;;;;;;;;;;;;;;;;;;5066784;28;19908;-56
